FMCZ Airport Information

Runway Information
Runway 16 Length 6330 ft width 92 ft
Elevation 10 ft Threshold 250 ft Heading 150
Runway 34 Length 6330 ft Width 92 ft
Elevation 23 ft Threshold 0 ft Heading 330
Airport Frequencies
Type AFIS Name AFIS Frequency 119.2 MHZ
Airport Navaids
Type VOR-DME Name Dzaoudzi Pamandzi Frequency 113500 KHZ
Type NDB Name Dzaoudzi Pamandzi Frequency 341 KHZ
Airport Weather Information & NOTAM
ADDS - METARS form results

(1038 UTC 22 March 2019)
Data provider http://aviationweather.gov/metar/data/
 
METAR text: FMCZ 221030Z AUTO 13005KT 070V180 CAVOK 32/25 Q1010 NOSIG
Conditions at: FMCZ (DZAOUDZI/PAMANZI, KM) observed 1030 UTC 22 March 2019
Temperature: 32.0°C (90°F)
Dewpoint: 25.0°C (77°F) [RH = 67%]
Pressure (altimeter): 29.82 inches Hg (1010.0 mb)
Winds: from the SE (130 degrees) at 6 MPH (5 knots; 2.6 m/s)
Visibility: 6 or more miles (10+ km)
Ceiling: ceiling and visibility are OK
Clouds: unknown
Weather: no significant weather observed at this time

METAR text: FMCZ 221000Z AUTO 11006KT 080V140 CAVOK 32/26 Q1010 NOSIG
Conditions at: FMCZ (DZAOUDZI/PAMANZI, KM) observed 1000 UTC 22 March 2019
Temperature: 32.0°C (90°F)
Dewpoint: 26.0°C (79°F) [RH = 71%]
Pressure (altimeter): 29.82 inches Hg (1010.0 mb)
Winds: from the ESE (110 degrees) at 7 MPH (6 knots; 3.1 m/s)
Visibility: 6 or more miles (10+ km)
Ceiling: ceiling and visibility are OK
Clouds: unknown
Weather: no significant weather observed at this time

Forecast for: FMCZ (DZAOUDZI/PAMANZI, KM)
Text: TAF FMCZ 220500Z 2206/2306 23005KT 9999 FEW025
Forecast period: 0600 UTC 22 March 2019 to 0600 UTC 23 March 2019
Forecast type: FROM: standard forecast or significant change
Winds: from the SW (230 degrees) at 6 MPH (5 knots; 2.6 m/s)
Visibility: 6 or more miles 10+ km)
Ceiling: at least 12,000 feet AGL
Clouds: few clouds at 2500 feet AGL
Weather: no significant weather forecast for this period